sensor_id;sensor_type;location;lat;lon;timestamp;pressure;altitude;pressure_sealevel;temperature;humidity
70925;BME280;58577;52.410;13.242;2022-11-15T00:00:08;101045.03;;;2.48;100.00
70925;BME280;58577;52.410;13.242;2022-11-15T00:03:16;101034.81;;;2.26;100.00
70925;BME280;58577;52.410;13.242;2022-11-15T00:06:21;101053.84;;;2.17;100.00
70925;BME280;58577;52.410;13.242;2022-11-15T00:09:26;101047.94;;;2.12;100.00
70925;BME280;58577;52.410;13.242;2022-11-15T00:12:30;101042.22;;;2.04;100.00
70925;BME280;58577;52.410;13.242;2022-11-15T00:15:36;101041.72;;;1.97;100.00
70925;BME280;58577;52.410;13.242;2022-11-15T00:18:40;101040.00;;;1.96;100.00
70925;BME280;58577;52.410;13.242;2022-11-15T00:21:45;101033.25;;;1.90;100.00
70925;BME280;58577;52.410;13.242;2022-11-15T00:24:49;101036.59;;;1.94;100.00
70925;BME280;58577;52.410;13.242;2022-11-15T00:27:57;101029.59;;;1.93;100.00
70925;BME280;58577;52.410;13.242;2022-11-15T00:31:04;101029.59;;;1.93;100.00
70925;BME280;58577;52.410;13.242;2022-11-15T00:34:09;101029.69;;;1.91;100.00
70925;BME280;58577;52.410;13.242;2022-11-15T00:37:14;101020.09;;;1.89;100.00
70925;BME280;58577;52.410;13.242;2022-11-15T00:40:19;101013.81;;;1.91;100.00
70925;BME280;58577;52.410;13.242;2022-11-15T00:43:23;101014.75;;;1.90;100.00
70925;BME280;58577;52.410;13.242;2022-11-15T00:46:27;101016.28;;;1.94;100.00
70925;BME280;58577;52.410;13.242;2022-11-15T00:49:31;101015.44;;;1.94;100.00
70925;BME280;58577;52.410;13.242;2022-11-15T00:52:36;101006.03;;;1.88;100.00
70925;BME280;58577;52.410;13.242;2022-11-15T00:55:40;100999.22;;;1.84;100.00
70925;BME280;58577;52.410;13.242;2022-11-15T00:58:45;100995.03;;;1.80;100.00
70925;BME280;58577;52.410;13.242;2022-11-15T01:01:49;100993.38;;;1.77;100.00
70925;BME280;58577;52.410;13.242;2022-11-15T01:04:53;101004.66;;;1.81;100.00
70925;BME280;58577;52.410;13.242;2022-11-15T01:07:58;100992.53;;;1.77;100.00
70925;BME280;58577;52.410;13.242;2022-11-15T01:11:04;100995.88;;;1.81;100.00
70925;BME280;58577;52.410;13.242;2022-11-15T01:14:09;100993.50;;;1.76;100.00
70925;BME280;58577;52.410;13.242;2022-11-15T01:17:13;100994.50;;;1.73;100.00
70925;BME280;58577;52.410;13.242;2022-11-15T01:20:17;100987.59;;;1.71;100.00
70925;BME280;58577;52.410;13.242;2022-11-15T01:23:22;100997.59;;;1.82;100.00
70925;BME280;58577;52.410;13.242;2022-11-15T01:26:27;100979.84;;;1.84;100.00
70925;BME280;58577;52.410;13.242;2022-11-15T01:29:32;100982.63;;;1.81;100.00
70925;BME280;58577;52.410;13.242;2022-11-15T01:32:36;100973.09;;;1.94;100.00
70925;BME280;58577;52.410;13.242;2022-11-15T01:35:41;100967.03;;;1.92;100.00
70925;BME280;58577;52.410;13.242;2022-11-15T01:38:45;100953.47;;;1.82;100.00
70925;BME280;58577;52.410;13.242;2022-11-15T01:41:50;100967.97;;;1.75;100.00
70925;BME280;58577;52.410;13.242;2022-11-15T01:44:54;100964.72;;;1.86;100.00
70925;BME280;58577;52.410;13.242;2022-11-15T01:47:59;100940.22;;;1.82;100.00
70925;BME280;58577;52.410;13.242;2022-11-15T01:51:07;100941.34;;;1.94;100.00
70925;BME280;58577;52.410;13.242;2022-11-15T01:54:15;100934.84;;;1.84;100.00
70925;BME280;58577;52.410;13.242;2022-11-15T01:57:20;100932.72;;;1.74;100.00
70925;BME280;58577;52.410;13.242;2022-11-15T02:00:25;100933.84;;;1.70;100.00
70925;BME280;58577;52.410;13.242;2022-11-15T02:03:36;100925.22;;;1.67;100.00
70925;BME280;58577;52.410;13.242;2022-11-15T02:06:44;100921.03;;;1.63;100.00
70925;BME280;58577;52.410;13.242;2022-11-15T02:09:51;100923.00;;;1.59;100.00
70925;BME280;58577;52.410;13.242;2022-11-15T02:12:55;100911.47;;;1.60;100.00
70925;BME280;58577;52.410;13.242;2022-11-15T02:35:52;100922.38;;;1.38;100.00
70925;BME280;58577;52.410;13.242;2022-11-15T02:45:47;100902.00;;;1.40;100.00
70925;BME280;58577;52.410;13.242;2022-11-15T02:48:54;100896.13;;;1.51;100.00
70925;BME280;58577;52.410;13.242;2022-11-15T02:51:58;100902.06;;;1.54;100.00
70925;BME280;58577;52.410;13.242;2022-11-15T02:55:03;100905.13;;;1.31;100.00
70925;BME280;58577;52.410;13.242;2022-11-15T02:58:30;100906.66;;;1.19;100.00
70925;BME280;58577;52.410;13.242;2022-11-15T03:12:14;100896.72;;;1.40;100.00
70925;BME280;58577;52.410;13.242;2022-11-15T03:15:39;100894.41;;;1.18;100.00
70925;BME280;58577;52.410;13.242;2022-11-15T03:18:49;100899.47;;;1.05;100.00
70925;BME280;58577;52.410;13.242;2022-11-15T03:21:58;100901.16;;;1.06;100.00
70925;BME280;58577;52.410;13.242;2022-11-15T03:25:07;100897.19;;;1.15;100.00
70925;BME280;58577;52.410;13.242;2022-11-15T03:28:17;100900.59;;;1.17;100.00
70925;BME280;58577;52.410;13.242;2022-11-15T03:31:27;100894.88;;;1.09;100.00
70925;BME280;58577;52.410;13.242;2022-11-15T03:34:58;100894.41;;;1.18;100.00
70925;BME280;58577;52.410;13.242;2022-11-15T03:38:26;100888.41;;;0.98;100.00
70925;BME280;58577;52.410;13.242;2022-11-15T03:41:43;100892.38;;;0.90;100.00
70925;BME280;58577;52.410;13.242;2022-11-15T03:48:13;100902.84;;;1.25;100.00
70925;BME280;58577;52.410;13.242;2022-11-15T03:51:19;100898.44;;;1.08;100.00
70925;BME280;58577;52.410;13.242;2022-11-15T03:54:23;100892.03;;;0.96;100.00
70925;BME280;58577;52.410;13.242;2022-11-15T03:57:27;100887.78;;;0.93;100.00
70925;BME280;58577;52.410;13.242;2022-11-15T04:00:32;100883.13;;;0.98;100.00
70925;BME280;58577;52.410;13.242;2022-11-15T04:03:36;100885.56;;;1.02;100.00
70925;BME280;58577;52.410;13.242;2022-11-15T04:06:41;100875.22;;;1.30;100.00
70925;BME280;58577;52.410;13.242;2022-11-15T04:09:45;100888.22;;;1.17;100.00
70925;BME280;58577;52.410;13.242;2022-11-15T04:13:08;100877.16;;;1.11;100.00
70925;BME280;58577;52.410;13.242;2022-11-15T04:16:12;100878.69;;;1.15;100.00
70925;BME280;58577;52.410;13.242;2022-11-15T04:19:17;100877.34;;;1.40;100.00
70925;BME280;58577;52.410;13.242;2022-11-15T04:22:40;100873.06;;;1.37;100.00
70925;BME280;58577;52.410;13.242;2022-11-15T04:26:10;100876.66;;;1.52;100.00
70925;BME280;58577;52.410;13.242;2022-11-15T04:29:15;100872.72;;;1.27;100.00
70925;BME280;58577;52.410;13.242;2022-11-15T04:32:38;100871.59;;;1.15;100.00
70925;BME280;58577;52.410;13.242;2022-11-15T04:35:42;100865.31;;;1.18;100.00
70925;BME280;58577;52.410;13.242;2022-11-15T04:38:47;100861.31;;;1.27;100.00
70925;BME280;58577;52.410;13.242;2022-11-15T04:41:51;100859.63;;;1.26;100.00
70925;BME280;58577;52.410;13.242;2022-11-15T04:44:56;100857.38;;;1.50;100.00
70925;BME280;58577;52.410;13.242;2022-11-15T04:48:00;100853.81;;;1.35;100.00
70925;BME280;58577;52.410;13.242;2022-11-15T04:51:05;100848.84;;;1.29;100.00
70925;BME280;58577;52.410;13.242;2022-11-15T04:54:09;100861.16;;;1.30;100.00
70925;BME280;58577;52.410;13.242;2022-11-15T04:57:14;100858.44;;;1.31;100.00
70925;BME280;58577;52.410;13.242;2022-11-15T05:00:18;100859.59;;;1.57;100.00
70925;BME280;58577;52.410;13.242;2022-11-15T05:03:23;100858.06;;;1.53;100.00
70925;BME280;58577;52.410;13.242;2022-11-15T05:06:50;100860.72;;;1.53;100.00
70925;BME280;58577;52.410;13.242;2022-11-15T05:09:55;100862.75;;;1.32;100.00
70925;BME280;58577;52.410;13.242;2022-11-15T05:12:59;100859.97;;;1.35;100.00
70925;BME280;58577;52.410;13.242;2022-11-15T05:16:04;100864.13;;;1.40;100.00
70925;BME280;58577;52.410;13.242;2022-11-15T05:19:09;100865.41;;;1.48;100.00
70925;BME280;58577;52.410;13.242;2022-11-15T05:22:13;100858.84;;;1.40;100.00
70925;BME280;58577;52.410;13.242;2022-11-15T05:25:17;100866.84;;;1.22;100.00
70925;BME280;58577;52.410;13.242;2022-11-15T05:28:22;100870.25;;;1.08;100.00
70925;BME280;58577;52.410;13.242;2022-11-15T05:31:27;100870.69;;;1.16;100.00
70925;BME280;58577;52.410;13.242;2022-11-15T05:34:32;100866.16;;;1.03;100.00
70925;BME280;58577;52.410;13.242;2022-11-15T05:37:36;100860.88;;;1.34;100.00
70925;BME280;58577;52.410;13.242;2022-11-15T05:40:40;100851.06;;;1.36;100.00
70925;BME280;58577;52.410;13.242;2022-11-15T05:43:45;100853.31;;;1.28;100.00
70925;BME280;58577;52.410;13.242;2022-11-15T05:46:51;100858.75;;;1.25;100.00
70925;BME280;58577;52.410;13.242;2022-11-15T05:49:58;100859.78;;;1.23;100.00
70925;BME280;58577;52.410;13.242;2022-11-15T05:53:02;100855.66;;;1.33;100.00
70925;BME280;58577;52.410;13.242;2022-11-15T05:56:08;100855.66;;;1.17;100.00
70925;BME280;58577;52.410;13.242;2022-11-15T05:59:13;100856.84;;;0.95;100.00
70925;BME280;58577;52.410;13.242;2022-11-15T06:02:17;100859.75;;;0.91;100.00
70925;BME280;58577;52.410;13.242;2022-11-15T06:05:22;100862.88;;;0.82;100.00
70925;BME280;58577;52.410;13.242;2022-11-15T06:08:27;100857.34;;;0.86;100.00
70925;BME280;58577;52.410;13.242;2022-11-15T06:11:31;100856.56;;;0.84;100.00
70925;BME280;58577;52.410;13.242;2022-11-15T06:14:36;100867.38;;;0.80;100.00
70925;BME280;58577;52.410;13.242;2022-11-15T06:17:40;100871.66;;;0.98;100.00
70925;BME280;58577;52.410;13.242;2022-11-15T06:20:45;100859.44;;;1.29;100.00
70925;BME280;58577;52.410;13.242;2022-11-15T06:23:49;100867.91;;;1.02;100.00
70925;BME280;58577;52.410;13.242;2022-11-15T06:26:54;100865.88;;;0.91;100.00
70925;BME280;58577;52.410;13.242;2022-11-15T06:29:58;100879.84;;;0.93;100.00
70925;BME280;58577;52.410;13.242;2022-11-15T06:33:05;100870.31;;;0.91;100.00
70925;BME280;58577;52.410;13.242;2022-11-15T06:36:11;100876.56;;;1.22;100.00
70925;BME280;58577;52.410;13.242;2022-11-15T06:39:20;100880.72;;;1.10;100.00
70925;BME280;58577;52.410;13.242;2022-11-15T06:42:25;100881.59;;;1.10;100.00
70925;BME280;58577;52.410;13.242;2022-11-15T06:45:29;100890.44;;;1.09;100.00
70925;BME280;58577;52.410;13.242;2022-11-15T06:48:34;100882.94;;;1.02;100.00
70925;BME280;58577;52.410;13.242;2022-11-15T06:51:40;100883.88;;;1.01;100.00
70925;BME280;58577;52.410;13.242;2022-11-15T06:54:45;100884.06;;;1.13;100.00
70925;BME280;58577;52.410;13.242;2022-11-15T06:57:50;100892.06;;;1.12;100.00
70925;BME280;58577;52.410;13.242;2022-11-15T07:01:00;100901.97;;;1.08;100.00
70925;BME280;58577;52.410;13.242;2022-11-15T07:04:04;100887.88;;;1.08;100.00
70925;BME280;58577;52.410;13.242;2022-11-15T07:07:09;100898.13;;;1.14;100.00
70925;BME280;58577;52.410;13.242;2022-11-15T07:10:13;100892.94;;;1.28;100.00
70925;BME280;58577;52.410;13.242;2022-11-15T07:13:18;100898.25;;;1.28;100.00
70925;BME280;58577;52.410;13.242;2022-11-15T07:16:22;100893.78;;;1.29;100.00
70925;BME280;58577;52.410;13.242;2022-11-15T07:19:27;100896.09;;;1.35;100.00
70925;BME280;58577;52.410;13.242;2022-11-15T07:22:31;100895.09;;;1.37;100.00
70925;BME280;58577;52.410;13.242;2022-11-15T07:25:36;100894.56;;;1.47;100.00
70925;BME280;58577;52.410;13.242;2022-11-15T07:28:41;100907.38;;;1.54;100.00
70925;BME280;58577;52.410;13.242;2022-11-15T07:31:46;100900.03;;;1.60;100.00
70925;BME280;58577;52.410;13.242;2022-11-15T07:34:50;100898.75;;;1.67;100.00
70925;BME280;58577;52.410;13.242;2022-11-15T07:37:59;100899.19;;;1.75;100.00
70925;BME280;58577;52.410;13.242;2022-11-15T07:41:05;100900.09;;;1.90;100.00
70925;BME280;58577;52.410;13.242;2022-11-15T07:44:09;100900.16;;;2.04;100.00
70925;BME280;58577;52.410;13.242;2022-11-15T07:47:14;100900.47;;;2.14;100.00
70925;BME280;58577;52.410;13.242;2022-11-15T07:50:18;100894.19;;;2.16;100.00
70925;BME280;58577;52.410;13.242;2022-11-15T07:53:23;100892.09;;;2.22;100.00
70925;BME280;58577;52.410;13.242;2022-11-15T07:56:27;100885.50;;;2.29;100.00
70925;BME280;58577;52.410;13.242;2022-11-15T07:59:31;100887.06;;;2.47;100.00
70925;BME280;58577;52.410;13.242;2022-11-15T08:02:36;100889.34;;;2.68;100.00
70925;BME280;58577;52.410;13.242;2022-11-15T08:05:41;100892.22;;;3.08;100.00
70925;BME280;58577;52.410;13.242;2022-11-15T08:08:46;100898.66;;;3.74;100.00
70925;BME280;58577;52.410;13.242;2022-11-15T08:11:51;100884.97;;;4.60;100.00
70925;BME280;58577;52.410;13.242;2022-11-15T08:14:56;100892.09;;;5.85;100.00
70925;BME280;58577;52.410;13.242;2022-11-15T08:18:04;100889.78;;;6.75;100.00
70925;BME280;58577;52.410;13.242;2022-11-15T08:21:09;100883.88;;;6.01;99.87
70925;BME280;58577;52.410;13.242;2022-11-15T08:24:15;100889.69;;;5.45;100.00
70925;BME280;58577;52.410;13.242;2022-11-15T08:27:19;100880.06;;;5.18;100.00
70925;BME280;58577;52.410;13.242;2022-11-15T08:30:24;100886.66;;;5.25;100.00
70925;BME280;58577;52.410;13.242;2022-11-15T08:33:29;100880.75;;;5.46;100.00
70925;BME280;58577;52.410;13.242;2022-11-15T08:36:34;100883.41;;;5.46;100.00
70925;BME280;58577;52.410;13.242;2022-11-15T08:39:38;100885.69;;;5.63;100.00
70925;BME280;58577;52.410;13.242;2022-11-15T08:42:45;100888.28;;;5.52;100.00
70925;BME280;58577;52.410;13.242;2022-11-15T08:45:50;100885.94;;;5.60;100.00
70925;BME280;58577;52.410;13.242;2022-11-15T08:48:54;100879.66;;;6.09;100.00
70925;BME280;58577;52.410;13.242;2022-11-15T08:51:58;100877.44;;;6.97;100.00
70925;BME280;58577;52.410;13.242;2022-11-15T08:55:03;100874.81;;;8.18;100.00
70925;BME280;58577;52.410;13.242;2022-11-15T08:58:08;100886.56;;;8.90;89.49
70925;BME280;58577;52.410;13.242;2022-11-15T09:01:18;100876.88;;;8.46;89.58
70925;BME280;58577;52.410;13.242;2022-11-15T09:04:22;100866.91;;;8.16;92.56
70925;BME280;58577;52.410;13.242;2022-11-15T09:07:27;100872.50;;;8.45;90.80
70925;BME280;58577;52.410;13.242;2022-11-15T09:10:33;100877.97;;;8.44;90.22
70925;BME280;58577;52.410;13.242;2022-11-15T09:13:38;100880.91;;;8.83;89.04
70925;BME280;58577;52.410;13.242;2022-11-15T09:16:42;100881.63;;;8.43;87.27
70925;BME280;58577;52.410;13.242;2022-11-15T09:19:46;100885.09;;;8.55;88.49
70925;BME280;58577;52.410;13.242;2022-11-15T09:22:51;100877.31;;;8.52;89.67
70925;BME280;58577;52.410;13.242;2022-11-15T09:26:00;100888.66;;;8.65;88.11
70925;BME280;58577;52.410;13.242;2022-11-15T09:29:06;100886.84;;;8.87;88.97
70925;BME280;58577;52.410;13.242;2022-11-15T09:32:11;100885.13;;;9.47;84.86
70925;BME280;58577;52.410;13.242;2022-11-15T09:35:15;100883.97;;;10.39;80.88
70925;BME280;58577;52.410;13.242;2022-11-15T09:38:19;100897.53;;;11.51;76.39
70925;BME280;58577;52.410;13.242;2022-11-15T09:51:41;100952.88;;;13.76;64.80
70925;BME280;58577;52.410;13.242;2022-11-15T09:54:39;100910.25;;;13.37;66.72
70925;BME280;58577;52.410;13.242;2022-11-15T10:01:00;100916.91;;;13.67;64.73
70925;BME280;58577;52.410;13.242;2022-11-15T10:03:49;100901.88;;;13.48;65.08
70925;BME280;58577;52.410;13.242;2022-11-15T10:06:38;100889.00;;;13.34;66.00
70925;BME280;58577;52.410;13.242;2022-11-15T10:09:36;100876.28;;;12.92;66.82
70925;BME280;58577;52.410;13.242;2022-11-15T10:12:24;100843.59;;;12.16;68.74
70925;BME280;58577;52.410;13.242;2022-11-15T10:15:15;100847.28;;;12.33;69.19
70925;BME280;58577;52.410;13.242;2022-11-15T10:18:08;100842.81;;;12.42;70.71
70925;BME280;58577;52.410;13.242;2022-11-15T10:21:02;100841.34;;;12.30;70.46
70925;BME280;58577;52.410;13.242;2022-11-15T10:23:55;100836.81;;;12.30;68.75
70925;BME280;58577;52.410;13.242;2022-11-15T10:26:47;100845.09;;;12.81;68.58
70925;BME280;58577;52.410;13.242;2022-11-15T10:29:33;100825.47;;;12.97;69.72
70925;BME280;58577;52.410;13.242;2022-11-15T10:32:20;100838.91;;;13.23;67.77
70925;BME280;58577;52.410;13.242;2022-11-15T10:35:18;100815.44;;;12.73;70.02
70925;BME280;58577;52.410;13.242;2022-11-15T10:38:09;100811.66;;;12.13;71.10
70925;BME280;58577;52.410;13.242;2022-11-15T10:41:07;100806.66;;;12.71;70.93
70925;BME280;58577;52.410;13.242;2022-11-15T10:44:17;100826.13;;;12.91;68.16
70925;BME280;58577;52.410;13.242;2022-11-15T10:47:30;100815.81;;;12.86;68.03
70925;BME280;58577;52.410;13.242;2022-11-15T10:50:32;100802.19;;;12.88;68.52
70925;BME280;58577;52.410;13.242;2022-11-15T10:53:28;100780.25;;;12.22;70.74
70925;BME280;58577;52.410;13.242;2022-11-15T10:56:20;100777.06;;;12.00;71.28
70925;BME280;58577;52.410;13.242;2022-11-15T10:59:16;100777.38;;;11.97;73.32
70925;BME280;58577;52.410;13.242;2022-11-15T11:02:38;100781.97;;;11.87;72.48
70925;BME280;58577;52.410;13.242;2022-11-15T11:05:36;100779.91;;;11.81;73.43
70925;BME280;58577;52.410;13.242;2022-11-15T11:08:24;100778.19;;;11.44;75.62
70925;BME280;58577;52.410;13.242;2022-11-15T11:11:10;100767.00;;;11.49;74.87
70925;BME280;58577;52.410;13.242;2022-11-15T11:14:11;100766.84;;;11.68;75.48
70925;BME280;58577;52.410;13.242;2022-11-15T11:23:33;100766.56;;;11.53;75.55
70925;BME280;58577;52.410;13.242;2022-11-15T11:26:40;100759.25;;;11.64;74.91
70925;BME280;58577;52.410;13.242;2022-11-15T11:29:38;100760.56;;;11.59;74.87
70925;BME280;58577;52.410;13.242;2022-11-15T11:32:50;100758.47;;;11.71;75.73
70925;BME280;58577;52.410;13.242;2022-11-15T11:35:45;100757.88;;;11.59;75.09
70925;BME280;58577;52.410;13.242;2022-11-15T11:41:49;100758.63;;;11.70;76.31
70925;BME280;58577;52.410;13.242;2022-11-15T11:44:43;100752.72;;;12.02;74.24
70925;BME280;58577;52.410;13.242;2022-11-15T11:47:39;100744.41;;;11.77;76.23
70925;BME280;58577;52.410;13.242;2022-11-15T11:50:29;100740.75;;;11.78;74.52
70925;BME280;58577;52.410;13.242;2022-11-15T11:53:28;100741.03;;;11.93;73.94
70925;BME280;58577;52.410;13.242;2022-11-15T11:56:25;100732.19;;;11.83;75.75
70925;BME280;58577;52.410;13.242;2022-11-15T11:59:21;100724.38;;;12.08;75.19
70925;BME280;58577;52.410;13.242;2022-11-15T12:02:18;100715.81;;;12.12;74.42
70925;BME280;58577;52.410;13.242;2022-11-15T12:05:24;100714.53;;;11.98;75.53
70925;BME280;58577;52.410;13.242;2022-11-15T12:08:25;100712.16;;;11.95;76.71
70925;BME280;58577;52.410;13.242;2022-11-15T12:11:17;100716.56;;;11.96;75.08
70925;BME280;58577;52.410;13.242;2022-11-15T12:14:15;100724.13;;;12.01;75.55
70925;BME280;58577;52.410;13.242;2022-11-15T12:17:03;100711.91;;;12.07;74.86
70925;BME280;58577;52.410;13.242;2022-11-15T12:19:51;100714.19;;;12.19;73.83
70925;BME280;58577;52.410;13.242;2022-11-15T12:25:49;100709.25;;;12.67;74.52
70925;BME280;58577;52.410;13.242;2022-11-15T12:28:54;100708.88;;;12.62;72.00
70925;BME280;58577;52.410;13.242;2022-11-15T12:31:50;100705.00;;;12.65;71.65
70925;BME280;58577;52.410;13.242;2022-11-15T12:34:41;100705.09;;;12.81;71.58
70925;BME280;58577;52.410;13.242;2022-11-15T12:40:37;100696.22;;;12.97;72.67
70925;BME280;58577;52.410;13.242;2022-11-15T12:43:39;100687.56;;;12.77;72.56
70925;BME280;58577;52.410;13.242;2022-11-15T12:52:09;100678.25;;;12.63;73.51
70925;BME280;58577;52.410;13.242;2022-11-15T12:55:00;100680.44;;;12.59;72.20
70925;BME280;58577;52.410;13.242;2022-11-15T12:57:47;100663.94;;;12.63;72.79
70925;BME280;58577;52.410;13.242;2022-11-15T13:03:22;100666.94;;;12.51;74.65
70925;BME280;58577;52.410;13.242;2022-11-15T13:06:37;100669.47;;;12.53;73.82
70925;BME280;58577;52.410;13.242;2022-11-15T13:21:22;100648.31;;;12.24;75.27
70925;BME280;58577;52.410;13.242;2022-11-15T13:24:27;100651.16;;;12.22;75.40
70925;BME280;58577;52.410;13.242;2022-11-15T13:27:18;100644.81;;;12.05;76.82
70925;BME280;58577;52.410;13.242;2022-11-15T13:30:05;100650.09;;;11.89;77.93
70925;BME280;58577;52.410;13.242;2022-11-15T13:32:52;100650.09;;;11.89;78.22
70925;BME280;58577;52.410;13.242;2022-11-15T13:35:40;100657.22;;;11.80;78.93
70925;BME280;58577;52.410;13.242;2022-11-15T13:38:31;100647.13;;;11.74;78.99
70925;BME280;58577;52.410;13.242;2022-11-15T13:41:21;100646.38;;;11.64;80.13
70925;BME280;58577;52.410;13.242;2022-11-15T13:44:20;100642.69;;;11.65;79.94
70925;BME280;58577;52.410;13.242;2022-11-15T13:47:13;100643.69;;;11.64;80.05
70925;BME280;58577;52.410;13.242;2022-11-15T13:49:59;100641.94;;;11.54;81.22
70925;BME280;58577;52.410;13.242;2022-11-15T13:52:47;100629.06;;;11.40;81.54
70925;BME280;58577;52.410;13.242;2022-11-15T13:55:34;100637.03;;;11.32;82.04
70925;BME280;58577;52.410;13.242;2022-11-15T13:58:20;100630.91;;;11.21;82.20
70925;BME280;58577;52.410;13.242;2022-11-15T14:01:06;100633.66;;;11.30;82.00
70925;BME280;58577;52.410;13.242;2022-11-15T14:04:00;100642.34;;;11.24;82.17
70925;BME280;58577;52.410;13.242;2022-11-15T14:06:49;100642.28;;;11.15;82.92
70925;BME280;58577;52.410;13.242;2022-11-15T14:09:38;100629.91;;;11.05;82.82
70925;BME280;58577;52.410;13.242;2022-11-15T14:12:31;100638.81;;;11.05;83.81
70925;BME280;58577;52.410;13.242;2022-11-15T14:15:35;100630.91;;;10.86;84.36
70925;BME280;58577;52.410;13.242;2022-11-15T14:18:47;100625.75;;;10.74;85.72
70925;BME280;58577;52.410;13.242;2022-11-15T14:21:33;100630.03;;;10.67;85.81
70925;BME280;58577;52.410;13.242;2022-11-15T14:24:21;100629.94;;;10.59;86.47
70925;BME280;58577;52.410;13.242;2022-11-15T14:27:26;100627.91;;;10.43;87.02
70925;BME280;58577;52.410;13.242;2022-11-15T14:30:14;100633.28;;;10.33;88.17
70925;BME280;58577;52.410;13.242;2022-11-15T14:33:00;100628.13;;;10.22;87.81
70925;BME280;58577;52.410;13.242;2022-11-15T14:35:46;100632.66;;;10.12;89.66
70925;BME280;58577;52.410;13.242;2022-11-15T14:38:32;100630.31;;;9.99;90.01
70925;BME280;58577;52.410;13.242;2022-11-15T14:41:21;100635.41;;;9.92;90.31
70925;BME280;58577;52.410;13.242;2022-11-15T14:44:10;100633.31;;;9.86;90.78
70925;BME280;58577;52.410;13.242;2022-11-15T14:46:56;100633.03;;;9.89;91.33
70925;BME280;58577;52.410;13.242;2022-11-15T14:49:42;100631.50;;;9.77;92.48
70925;BME280;58577;52.410;13.242;2022-11-15T14:52:30;100626.28;;;9.65;93.29
70925;BME280;58577;52.410;13.242;2022-11-15T14:55:21;100631.38;;;9.59;94.00
70925;BME280;58577;52.410;13.242;2022-11-15T14:58:09;100627.03;;;9.48;93.75
70925;BME280;58577;52.410;13.242;2022-11-15T15:00:55;100630.00;;;9.35;94.05
70925;BME280;58577;52.410;13.242;2022-11-15T15:03:41;100617.03;;;9.31;94.77
70925;BME280;58577;52.410;13.242;2022-11-15T15:06:27;100607.34;;;9.20;96.23
70925;BME280;58577;52.410;13.242;2022-11-15T15:09:12;100604.66;;;9.00;97.26
70925;BME280;58577;52.410;13.242;2022-11-15T15:11:58;100607.72;;;8.96;97.54
70925;BME280;58577;52.410;13.242;2022-11-15T15:14:44;100616.19;;;8.91;98.20
70925;BME280;58577;52.410;13.242;2022-11-15T15:17:30;100604.47;;;8.82;98.74
70925;BME280;58577;52.410;13.242;2022-11-15T15:20:16;100599.44;;;8.79;98.81
70925;BME280;58577;52.410;13.242;2022-11-15T15:23:02;100594.91;;;8.70;99.25
70925;BME280;58577;52.410;13.242;2022-11-15T15:25:48;100594.03;;;8.60;99.48
70925;BME280;58577;52.410;13.242;2022-11-15T15:28:34;100598.13;;;8.54;100.00
70925;BME280;58577;52.410;13.242;2022-11-15T15:31:20;100601.06;;;8.61;100.00
70925;BME280;58577;52.410;13.242;2022-11-15T15:34:06;100599.22;;;8.52;99.97
70925;BME280;58577;52.410;13.242;2022-11-15T15:40:15;100590.69;;;8.27;99.77
70925;BME280;58577;52.410;13.242;2022-11-15T15:43:02;100591.66;;;8.26;100.00
70925;BME280;58577;52.410;13.242;2022-11-15T15:45:48;100590.09;;;8.14;100.00
70925;BME280;58577;52.410;13.242;2022-11-15T15:48:33;100587.25;;;8.05;100.00
70925;BME280;58577;52.410;13.242;2022-11-15T15:51:22;100587.25;;;8.05;100.00
70925;BME280;58577;52.410;13.242;2022-11-15T15:54:08;100582.41;;;7.99;100.00
70925;BME280;58577;52.410;13.242;2022-11-15T15:56:54;100583.63;;;7.85;100.00
70925;BME280;58577;52.410;13.242;2022-11-15T15:59:40;100573.06;;;7.84;100.00
70925;BME280;58577;52.410;13.242;2022-11-15T16:02:26;100574.97;;;7.72;100.00
70925;BME280;58577;52.410;13.242;2022-11-15T16:05:12;100564.66;;;7.58;100.00
70925;BME280;58577;52.410;13.242;2022-11-15T16:07:58;100566.22;;;7.60;100.00
70925;BME280;58577;52.410;13.242;2022-11-15T16:10:44;100576.84;;;7.51;100.00
70925;BME280;58577;52.410;13.242;2022-11-15T16:13:30;100572.88;;;7.45;100.00
70925;BME280;58577;52.410;13.242;2022-11-15T16:16:16;100571.91;;;7.46;100.00
70925;BME280;58577;52.410;13.242;2022-11-15T16:19:02;100562.19;;;7.45;100.00
70925;BME280;58577;52.410;13.242;2022-11-15T16:21:48;100565.50;;;7.37;100.00
70925;BME280;58577;52.410;13.242;2022-11-15T16:24:33;100562.25;;;7.34;100.00
70925;BME280;58577;52.410;13.242;2022-11-15T16:27:20;100559.84;;;7.31;100.00
70925;BME280;58577;52.410;13.242;2022-11-15T16:30:13;100562.78;;;7.27;100.00
70925;BME280;58577;52.410;13.242;2022-11-15T16:33:00;100557.25;;;7.19;100.00
70925;BME280;58577;52.410;13.242;2022-11-15T16:35:45;100555.34;;;7.10;100.00
70925;BME280;58577;52.410;13.242;2022-11-15T16:38:33;100558.13;;;7.08;100.00
70925;BME280;58577;52.410;13.242;2022-11-15T16:41:19;100554.38;;;7.11;100.00
70925;BME280;58577;52.410;13.242;2022-11-15T16:44:05;100545.38;;;7.12;100.00
70925;BME280;58577;52.410;13.242;2022-11-15T16:46:51;100546.03;;;7.25;100.00
70925;BME280;58577;52.410;13.242;2022-11-15T16:49:37;100544.63;;;7.21;100.00
70925;BME280;58577;52.410;13.242;2022-11-15T16:52:23;100539.16;;;7.23;100.00
70925;BME280;58577;52.410;13.242;2022-11-15T16:55:08;100543.84;;;7.31;100.00
70925;BME280;58577;52.410;13.242;2022-11-15T16:57:55;100538.31;;;7.22;100.00
70925;BME280;58577;52.410;13.242;2022-11-15T17:00:44;100535.31;;;7.37;100.00